Motte Rimrock Reserve, California Weather observations

Data are for 10 minute period ending at time listed.
 Day   Time   Solar   Ave.   Ave.  Ave.  Vector  Max.   Baro.   Total    
  of    of     Rad.   Air    Rel.  Wind   Wind   Wind  Press.  Precip.   
Year   Day            Temp.  Hum.  Speed  Dir.   Gust                    
2015   (PST)  Kw/m2    F      %     mph   deg.    mph    mb.     in.     
-------------------------------------------------------------------------
  25    2:20   0.00   57.6    19    8.6   345    11.8   950.1    0.00 
  25    2:30   0.00   60.5    16    9.5   354    13.7   950.1    0.00 
  25    2:40   0.00   59.1    17    9.8   342    14.5   950.1    0.00 
  25    2:50   0.00   58.1    18   12.6   329    14.3   950.1    0.00 
  25    3:00   0.00   58.2    18   12.6   333    14.0   950.0    0.00 
  25    3:10   0.00   59.0    18    9.8   336    12.8   950.1    0.00 
  25    3:20   0.00   58.5    18   10.3   333    12.9   950.0    0.00 
  25    3:30   0.00   58.5    18   11.4   332    13.3   949.9    0.00 
  25    3:40   0.00   58.2    19   10.9   338    12.7   949.8    0.00 
  25    3:50   0.00   57.8    19   10.4   340    12.8   949.7    0.00 
  25    4:00   0.00   58.1    19    9.7   342    12.2   949.8    0.00 
  25    4:10   0.00   59.0    18   10.3   335    12.6   949.8    0.00 
  25    4:20   0.00   57.7    20   11.5   330    14.8   949.8    0.00 
  25    4:30   0.00   58.0    20   10.8   338    14.8   949.7    0.00 
  25    4:40   0.00   57.4    20    9.1   343    11.6   949.6    0.00 
  25    4:50   0.00   57.7    20    9.6   342    12.7   949.6    0.00 
  25    5:00   0.00   57.7    20    9.9   340    11.2   949.6    0.00 
  25    5:10   0.00   58.0    20   10.5   356    14.5   949.6    0.00 
  25    5:20   0.00   60.9    17   12.1     1    16.4   949.5    0.00 
  25    5:30   0.00   61.2    17   11.1     2    15.7   949.5    0.00 
  25    5:40   0.00   61.1    17   10.7     6    14.2   949.5    0.00 
  25    5:50   0.00   60.9    18    9.1     4    13.4   949.7    0.00 
  25    6:00   0.00   61.4    18    8.1    12    16.1   949.8    0.00 
  25    6:10   0.00   59.1    20    8.0   353    12.0   949.9    0.00 
  25    6:20   0.00   58.4    20   10.3   360    13.4   949.9    0.00 
  25    6:30   0.00   59.6    19   11.1   359    16.0   950.0    0.00 
  25    6:40   0.00   61.2    18   11.0    10    15.7   950.0    0.00 
  25    6:50   0.00   62.0    18    9.9    14    14.8   950.1    0.00 
  25    7:00   0.00   61.7    18    9.4    11    15.9   950.1    0.00 
  25    7:10   0.01   60.9    20    6.7     6    10.1   950.2    0.00 
  25    7:20   0.04   61.2    20    7.6     6    12.5   950.2    0.00 
  25    7:30   0.07   61.5    19    8.8     6    11.8   950.3    0.00 
  25    7:40   0.10   60.6    20    8.8   358    11.8   950.3    0.00 
  25    7:50   0.13   61.8    20    9.2    12    14.5   950.3    0.00 
  25    8:00   0.16   63.8    19   10.6    24    15.4   950.4    0.00 
  25    8:10   0.19   64.3    19   10.6    20    14.8   950.4    0.00 
  25    8:20   0.23   64.9    19    9.9    24    13.7   950.5    0.00 
  25    8:30   0.26   66.1    19    9.2    29    13.7   950.5    0.00 
  25    8:40   0.29   67.0    19    8.5    33    14.5   950.6    0.00 
  25    8:50   0.32   67.9    19    8.9    38    13.6   950.7    0.00 
  25    9:00   0.35   68.3    18    9.3    26    13.8   950.7    0.00 
  25    9:10   0.38   68.6    18    9.1    20    12.9   950.8    0.00 
  25    9:20   0.41   69.1    19    9.1    13    13.4   950.8    0.00 
  25    9:30   0.43   70.0    18    8.2    17    12.6   950.8    0.00 
  25    9:40   0.46   71.1    17   10.0    44    14.0   950.9    0.00 
  25    9:50   0.49   71.6    16    7.5    41    13.4   951.0    0.00 
  25   10:00   0.51   72.1    17    7.0    32    11.5   950.9    0.00 
  25   10:10   0.53   72.9    16    8.5    43    13.1   950.8    0.00 
  25   10:20   0.55   73.1    16    8.3    54    14.5   950.9    0.00 
  25   10:30   0.57   73.4    16   13.8    52    21.5   950.7    0.00 
  25   10:40   0.58   73.3    16   15.9    50    22.6   950.6    0.00 
  25   10:50   0.60   73.5    16   15.3    47    23.3   950.6    0.00 
  25   11:00   0.62   74.0    16   14.3    49    21.8   950.5    0.00 
  25   11:10   0.63   74.3    16   13.9    46    23.2   950.4    0.00 
  25   11:20   0.64   74.6    15   14.3    54    24.8   950.3    0.00 
  25   11:30   0.61   74.9    15   13.3    52    22.9   950.1    0.00 
  25   11:40   0.55   73.9    15   16.5    54    23.1   949.8    0.00 
  25   11:50   0.51   74.4    15   14.7    47    21.9   949.6    0.00 
  25   12:00   0.46   73.7    16   14.9    44    21.7   949.5    0.00 
  25   12:10   0.49   74.3    15   14.7    36    22.5   949.4    0.00 
  25   12:20   0.50   74.3    15   14.5    52    21.9   949.2    0.00 
  25   12:30   0.51   74.2    15   13.2    39    22.0   949.0    0.00 
  25   12:40   0.43   74.4    15   12.3    40    21.9   948.8    0.00 
  25   12:50   0.30   74.2    15   13.8    47    25.3   948.6    0.00 
  25   13:00   0.30   73.6    15   16.8    55    25.2   948.3    0.00 
  25   13:10   0.29   73.3    14   19.0    57    28.6   948.1    0.00 
  25   13:20   0.24   73.4    14   21.4    59    29.7   948.0    0.00 
  25   13:30   0.24   73.3    14   18.3    62    27.0   947.9    0.00 
  25   13:40   0.23   73.5    12   17.4    61    26.7   947.9    0.00 
  25   13:50   0.23   73.4    13   14.6    56    21.9   948.1    0.00 
  25   14:00   0.19   73.4    13   10.2    52    18.4   948.0    0.00 
  25   14:10   0.17   73.2    15    6.5   124    13.5   948.1    0.00 
  25   14:20   0.20   72.2    17    9.3   156    19.0   948.2    0.00 
  25   14:30   0.15   72.8    15    2.6   171     6.1   948.3    0.00 
  25   14:40   0.13   72.1    18    3.9   155     6.7   948.4    0.00 
  25   14:50   0.11   71.6    19    2.2   170     4.2   948.3    0.00 
  25   15:00   0.12   71.4    18    4.0   325     5.7   948.3    0.00 
  25   15:10   0.09   71.3    18    4.1    49     8.1   948.4    0.00 
  25   15:20   0.07   71.4    16    9.7    72    23.4   948.2    0.00 
  25   15:30   0.07   72.2    14   15.6    74    25.3   948.3    0.00 
  25   15:40   0.07   71.8    15   18.1    64    30.2   948.2    0.00 
  25   15:50   0.06   71.1    16   15.8    63    24.0   948.2    0.00 
  25   16:00   0.07   71.0    17   18.0    67    26.9   948.1    0.00 
  25   16:10   0.09   70.9    17   13.7    62    26.3   948.2    0.00 
  25   16:20   0.13   71.0    17   13.8    65    23.8   948.3    0.00 
  25   16:30   0.10   70.8    17   14.5    68    25.2   948.5    0.00 
  25   16:40   0.08   70.8    17   14.6    69    26.0   948.5    0.00 
  25   16:50   0.07   70.8    18   13.5    71    20.9   948.7    0.00 
  25   17:00   0.04   70.2    18    7.9    87    16.0   948.8    0.00 
  25   17:10   0.02   70.3    18    9.2    80    15.5   948.8    0.00 
  25   17:20   0.01   69.6    18    6.3    64    11.0   948.9    0.00 
  25   17:30   0.00   68.8    20    4.4    51     7.5   949.0    0.00 
  25   17:40   0.00   68.5    20    6.9    32    11.9   948.9    0.00 
  25   17:50   0.00   69.1    19    6.5    14    13.2   948.9    0.00 
  25   18:00   0.00   69.0    19    6.2    16    10.1   949.0    0.00 
  25   18:10   0.00   68.6    20    5.5    20     9.3   949.0    0.00 
  25   18:20   0.00   66.7    22    4.2   214     8.3   949.3    0.00 
  25   18:30   0.00   65.9    22    7.5   224    10.6   949.4    0.00 
  25   18:40   0.00   65.2    21    8.0   232    10.9   949.7    0.00 
  25   18:50   0.00   65.4    20    7.4   229    12.0   949.8    0.00 
  25   19:00   0.00   65.0    21    7.3   224    10.7   949.8    0.00 
  25   19:10   0.00   64.2    22    6.8   219     8.4   949.9    0.00 
  25   19:20   0.00   64.2    22    6.7   221     7.9   949.9    0.00 
  25   19:30   0.00   64.6    21    7.0   225     8.3   949.9    0.00 
  25   19:40   0.00   64.1    22    7.6   223     8.8   950.0    0.00 
  25   19:50   0.00   64.0    22    6.7   217     8.4   950.2    0.00 
  25   20:00   0.00   64.7    21    4.8   219     5.9   950.3    0.00 
  25   20:10   0.00   65.0    20    1.9   286     4.2   950.3    0.00 
  25   20:20   0.00   65.0    21    3.5   222     6.9   950.3    0.00 
  25   20:30   0.00   65.0    21    5.4   235     7.2   950.4    0.00 
  25   20:40   0.00   65.0    21    4.8   239     6.6   950.5    0.00 
  25   20:50   0.00   64.3    21    5.1   229     7.0   950.5    0.00 
  25   21:00   0.00   64.6    21    5.1   223     6.9   950.5    0.00 
  25   21:10   0.00   65.2    20    4.7   224     6.2   950.4    0.00 
  25   21:20   0.00   65.6    19    3.0   211     5.3   950.4    0.00 
  25   21:30   0.00   64.7    21    2.4    48     5.9   950.4    0.00 
  25   21:40   0.00   64.3    21    3.9    22     7.6   950.4    0.00 
  25   21:50   0.00   63.2    22    8.1     7     9.9   950.4    0.00 
  25   22:00   0.00   62.3    24    6.6     1     8.0   950.5    0.00 
  25   22:10   0.00   62.9    23    5.5     4     7.4   950.5    0.00 
  25   22:20   0.00   63.1    22    5.2   358     5.9   950.4    0.00 
  25   22:30   0.00   63.5    22    6.1     0     6.7   950.3    0.00 
  25   22:40   0.00   62.3    24    5.2   324     7.5   950.4    0.00 
  25   22:50   0.00   61.8    24    4.0   328     5.6   950.4    0.00 
  25   23:00   0.00   62.9    23    3.0   352     4.5   950.4    0.00 
  25   23:10   0.00   63.3    23    3.5    16     6.1   950.4    0.00 
  25   23:20   0.00   62.5    24    3.2    78     4.7   950.5    0.00 
  25   23:30   0.00   60.9    26    3.4   133     4.5   950.6    0.00 
  25   23:40   0.00   61.7    24    1.7   127     2.7   950.4    0.00 
  25   23:50   0.00   61.9    24    2.2   197     2.9   950.3    0.00 
  26    0:00   0.00   62.0    24    2.1   237     2.7   950.2    0.00 
  26    0:10   0.00   63.0    23    2.4   253     3.3   950.0    0.00 
  26    0:20   0.00   63.6    23    0.6    58     2.1   950.0    0.00 
  26    0:30   0.00   63.4    23    1.3   125     2.5   949.9    0.00 
  26    0:40   0.00   63.1    24    1.2   195     3.1   949.8    0.00 
  26    0:50   0.00   63.5    23    1.3   264     2.5   949.7    0.00 
  26    1:00   0.00   63.5    23    1.5   312     3.5   949.5    0.00 
  26    1:10   0.00   64.1    23    0.5    38     1.5   949.6    0.00 
  26    1:20   0.00   63.6    24    1.1   118     2.2   949.7    0.00 
  26    1:30   0.00   63.1    24    0.5   176     1.7   949.5    0.00 
  26    1:40   0.00   63.3    24    1.1   135     2.0   949.6    0.00 
  26    1:50   0.00   63.6    24    0.0     0     0.0   949.4    0.00 
  26    2:00   0.00   63.5    24    1.0   195     2.5   949.3    0.00 
  26    2:10   0.00   63.0    24    0.5   162     1.8   949.3    0.00 

Return to Motte Rimrock Reserve graphs page.


Western Regional Climate Center,wrcc@dri.edu